sensor_id;sensor_type;location;lat;lon;timestamp;P1;durP1;ratioP1;P2;durP2;ratioP2
81834;SDS011;71272;52.166;4.498;2024-02-21T17:04:15;28.90;;;12.38;;
81834;SDS011;71272;52.166;4.498;2024-02-21T17:06:41;26.07;;;11.47;;
81834;SDS011;71272;52.166;4.498;2024-02-21T17:09:08;23.08;;;10.55;;
81834;SDS011;71272;52.166;4.498;2024-02-21T17:11:34;19.45;;;9.52;;
81834;SDS011;71272;52.166;4.498;2024-02-21T17:14:02;20.02;;;10.02;;
81834;SDS011;71272;52.166;4.498;2024-02-21T17:16:28;17.02;;;9.15;;
81834;SDS011;71272;52.166;4.498;2024-02-21T17:18:54;17.88;;;7.93;;
81834;SDS011;71272;52.166;4.498;2024-02-21T17:21:19;17.27;;;7.77;;
81834;SDS011;71272;52.166;4.498;2024-02-21T17:23:44;17.37;;;7.20;;
81834;SDS011;71272;52.166;4.498;2024-02-21T17:26:10;13.38;;;6.38;;
81834;SDS011;71272;52.166;4.498;2024-02-21T17:28:36;10.77;;;5.53;;
81834;SDS011;71272;52.166;4.498;2024-02-21T17:31:01;13.05;;;5.85;;
81834;SDS011;71272;52.166;4.498;2024-02-21T17:33:26;16.03;;;5.90;;
81834;SDS011;71272;52.166;4.498;2024-02-21T17:35:52;11.30;;;5.03;;
81834;SDS011;71272;52.166;4.498;2024-02-21T17:38:18;11.32;;;4.72;;
81834;SDS011;71272;52.166;4.498;2024-02-21T17:40:45;8.07;;;4.07;;
81834;SDS011;71272;52.166;4.498;2024-02-21T17:43:11;8.20;;;4.28;;
81834;SDS011;71272;52.166;4.498;2024-02-21T17:45:37;13.95;;;4.47;;
81834;SDS011;71272;52.166;4.498;2024-02-21T17:48:04;8.02;;;3.60;;
81834;SDS011;71272;52.166;4.498;2024-02-21T17:50:31;10.15;;;3.28;;
81834;SDS011;71272;52.166;4.498;2024-02-21T17:52:56;10.47;;;4.33;;
81834;SDS011;71272;52.166;4.498;2024-02-21T17:55:21;8.25;;;3.28;;
81834;SDS011;71272;52.166;4.498;2024-02-21T17:57:47;13.07;;;3.40;;
81834;SDS011;71272;52.166;4.498;2024-02-21T18:00:12;7.30;;;2.90;;
81834;SDS011;71272;52.166;4.498;2024-02-21T18:02:38;5.50;;;2.78;;
81834;SDS011;71272;52.166;4.498;2024-02-21T18:05:04;12.03;;;3.40;;
81834;SDS011;71272;52.166;4.498;2024-02-21T18:07:30;5.93;;;2.88;;
81834;SDS011;71272;52.166;4.498;2024-02-21T18:09:55;7.97;;;3.25;;
81834;SDS011;71272;52.166;4.498;2024-02-21T18:12:21;5.82;;;2.53;;
81834;SDS011;71272;52.166;4.498;2024-02-21T18:14:46;5.50;;;2.33;;
81834;SDS011;71272;52.166;4.498;2024-02-21T18:17:11;6.18;;;2.55;;
81834;SDS011;71272;52.166;4.498;2024-02-21T18:19:39;5.10;;;1.80;;
81834;SDS011;71272;52.166;4.498;2024-02-21T18:22:04;7.67;;;2.30;;
81834;SDS011;71272;52.166;4.498;2024-02-21T18:24:30;4.25;;;1.90;;
81834;SDS011;71272;52.166;4.498;2024-02-21T18:26:55;6.10;;;2.20;;
81834;SDS011;71272;52.166;4.498;2024-02-21T18:29:21;6.40;;;2.13;;
81834;SDS011;71272;52.166;4.498;2024-02-21T18:31:50;5.97;;;2.30;;
81834;SDS011;71272;52.166;4.498;2024-02-21T18:34:15;4.55;;;1.90;;
81834;SDS011;71272;52.166;4.498;2024-02-21T18:36:40;4.10;;;2.17;;
81834;SDS011;71272;52.166;4.498;2024-02-21T18:39:05;5.30;;;2.20;;
81834;SDS011;71272;52.166;4.498;2024-02-21T18:41:32;4.18;;;2.08;;
81834;SDS011;71272;52.166;4.498;2024-02-21T18:43:57;6.65;;;2.00;;
81834;SDS011;71272;52.166;4.498;2024-02-21T18:46:24;4.90;;;1.70;;
81834;SDS011;71272;52.166;4.498;2024-02-21T18:48:49;4.00;;;2.10;;
81834;SDS011;71272;52.166;4.498;2024-02-21T18:51:15;5.53;;;1.83;;
81834;SDS011;71272;52.166;4.498;2024-02-21T18:53:41;3.55;;;1.70;;
81834;SDS011;71272;52.166;4.498;2024-02-21T18:56:07;4.38;;;1.83;;
81834;SDS011;71272;52.166;4.498;2024-02-21T18:58:33;6.05;;;1.80;;
81834;SDS011;71272;52.166;4.498;2024-02-21T19:00:59;4.63;;;1.90;;
81834;SDS011;71272;52.166;4.498;2024-02-21T19:03:24;3.97;;;2.08;;
81834;SDS011;71272;52.166;4.498;2024-02-21T19:05:50;3.70;;;1.75;;
81834;SDS011;71272;52.166;4.498;2024-02-21T19:08:16;3.88;;;1.58;;
81834;SDS011;71272;52.166;4.498;2024-02-21T19:10:41;4.07;;;1.50;;
81834;SDS011;71272;52.166;4.498;2024-02-21T19:13:06;3.50;;;1.63;;
81834;SDS011;71272;52.166;4.498;2024-02-21T19:15:34;4.95;;;1.75;;
81834;SDS011;71272;52.166;4.498;2024-02-21T19:17:59;4.70;;;1.73;;
81834;SDS011;71272;52.166;4.498;2024-02-21T19:20:25;3.13;;;1.63;;
81834;SDS011;71272;52.166;4.498;2024-02-21T19:22:50;3.33;;;1.48;;
81834;SDS011;71272;52.166;4.498;2024-02-21T19:25:16;3.72;;;1.70;;
81834;SDS011;71272;52.166;4.498;2024-02-21T19:27:46;4.85;;;1.73;;
81834;SDS011;71272;52.166;4.498;2024-02-21T19:30:14;4.15;;;1.60;;
81834;SDS011;71272;52.166;4.498;2024-02-21T19:32:41;4.50;;;1.45;;
81834;SDS011;71272;52.166;4.498;2024-02-21T19:35:07;2.80;;;1.38;;
81834;SDS011;71272;52.166;4.498;2024-02-21T19:37:36;4.15;;;1.50;;
81834;SDS011;71272;52.166;4.498;2024-02-21T19:40:06;2.80;;;1.40;;
81834;SDS011;71272;52.166;4.498;2024-02-21T19:42:32;3.00;;;1.38;;
81834;SDS011;71272;52.166;4.498;2024-02-21T19:44:58;2.90;;;1.50;;
81834;SDS011;71272;52.166;4.498;2024-02-21T19:47:23;4.10;;;1.75;;
81834;SDS011;71272;52.166;4.498;2024-02-21T19:49:50;3.53;;;1.50;;
81834;SDS011;71272;52.166;4.498;2024-02-21T19:52:15;3.33;;;1.30;;
81834;SDS011;71272;52.166;4.498;2024-02-21T19:54:41;5.70;;;1.50;;
81834;SDS011;71272;52.166;4.498;2024-02-21T19:57:06;2.63;;;1.20;;
81834;SDS011;71272;52.166;4.498;2024-02-21T19:59:33;3.03;;;1.40;;
81834;SDS011;71272;52.166;4.498;2024-02-21T20:02:00;8.10;;;1.73;;
81834;SDS011;71272;52.166;4.498;2024-02-21T20:04:25;2.38;;;1.30;;
81834;SDS011;71272;52.166;4.498;2024-02-21T20:06:51;3.30;;;1.23;;
81834;SDS011;71272;52.166;4.498;2024-02-21T20:09:17;2.03;;;1.25;;
81834;SDS011;71272;52.166;4.498;2024-02-21T20:11:43;3.13;;;1.30;;
81834;SDS011;71272;52.166;4.498;2024-02-21T20:14:09;2.47;;;1.20;;
81834;SDS011;71272;52.166;4.498;2024-02-21T20:16:34;3.58;;;1.60;;
81834;SDS011;71272;52.166;4.498;2024-02-21T20:19:01;2.58;;;1.33;;
81834;SDS011;71272;52.166;4.498;2024-02-21T20:21:26;3.65;;;1.60;;
81834;SDS011;71272;52.166;4.498;2024-02-21T20:23:52;3.17;;;1.20;;
81834;SDS011;71272;52.166;4.498;2024-02-21T20:26:17;2.60;;;1.20;;
81834;SDS011;71272;52.166;4.498;2024-02-21T20:28:43;2.78;;;1.30;;
81834;SDS011;71272;52.166;4.498;2024-02-21T20:31:08;2.73;;;1.30;;
81834;SDS011;71272;52.166;4.498;2024-02-21T20:33:34;4.75;;;1.23;;
81834;SDS011;71272;52.166;4.498;2024-02-21T20:35:59;2.67;;;1.08;;
81834;SDS011;71272;52.166;4.498;2024-02-21T20:38:25;2.08;;;1.05;;
81834;SDS011;71272;52.166;4.498;2024-02-21T20:40:50;1.77;;;0.90;;
81834;SDS011;71272;52.166;4.498;2024-02-21T20:43:15;2.45;;;1.20;;
81834;SDS011;71272;52.166;4.498;2024-02-21T20:45:41;2.97;;;1.47;;
81834;SDS011;71272;52.166;4.498;2024-02-21T20:48:06;1.35;;;0.90;;
81834;SDS011;71272;52.166;4.498;2024-02-21T20:50:32;4.72;;;1.30;;
81834;SDS011;71272;52.166;4.498;2024-02-21T20:52:58;1.52;;;0.88;;
81834;SDS011;71272;52.166;4.498;2024-02-21T20:55:24;2.55;;;1.10;;
81834;SDS011;71272;52.166;4.498;2024-02-21T20:57:52;2.53;;;1.10;;
81834;SDS011;71272;52.166;4.498;2024-02-21T21:00:18;2.08;;;1.10;;
81834;SDS011;71272;52.166;4.498;2024-02-21T21:02:46;2.05;;;1.00;;
81834;SDS011;71272;52.166;4.498;2024-02-21T21:05:12;2.20;;;1.00;;
81834;SDS011;71272;52.166;4.498;2024-02-21T21:07:37;3.42;;;1.20;;
81834;SDS011;71272;52.166;4.498;2024-02-21T21:10:03;1.90;;;1.00;;
81834;SDS011;71272;52.166;4.498;2024-02-21T21:12:29;2.20;;;1.00;;
81834;SDS011;71272;52.166;4.498;2024-02-21T21:17:21;3.80;;;1.00;;
81834;SDS011;71272;52.166;4.498;2024-02-21T21:19:46;2.77;;;0.90;;
81834;SDS011;71272;52.166;4.498;2024-02-21T21:22:12;2.03;;;1.00;;
81834;SDS011;71272;52.166;4.498;2024-02-21T21:24:37;1.92;;;1.13;;
81834;SDS011;71272;52.166;4.498;2024-02-21T21:27:02;1.97;;;1.20;;
81834;SDS011;71272;52.166;4.498;2024-02-21T21:29:28;2.13;;;0.90;;
81834;SDS011;71272;52.166;4.498;2024-02-21T21:31:53;1.63;;;0.90;;
81834;SDS011;71272;52.166;4.498;2024-02-21T21:34:19;1.67;;;0.87;;
81834;SDS011;71272;52.166;4.498;2024-02-21T21:36:44;1.97;;;0.90;;
81834;SDS011;71272;52.166;4.498;2024-02-21T21:39:09;2.57;;;1.07;;
81834;SDS011;71272;52.166;4.498;2024-02-21T21:41:35;0.83;;;0.60;;
81834;SDS011;71272;52.166;4.498;2024-02-21T21:44:00;1.13;;;0.70;;
81834;SDS011;71272;52.166;4.498;2024-02-21T21:46:25;2.53;;;0.90;;
81834;SDS011;71272;52.166;4.498;2024-02-21T21:48:51;1.47;;;0.80;;
81834;SDS011;71272;52.166;4.498;2024-02-21T21:51:16;1.73;;;0.93;;
81834;SDS011;71272;52.166;4.498;2024-02-21T21:53:41;1.47;;;0.80;;
81834;SDS011;71272;52.166;4.498;2024-02-21T21:56:09;2.08;;;1.25;;
81834;SDS011;71272;52.166;4.498;2024-02-21T21:58:34;2.50;;;0.90;;
81834;SDS011;71272;52.166;4.498;2024-02-21T22:01:00;1.50;;;0.70;;
81834;SDS011;71272;52.166;4.498;2024-02-21T22:03:26;2.97;;;0.83;;
81834;SDS011;71272;52.166;4.498;2024-02-21T22:05:52;1.33;;;0.70;;
81834;SDS011;71272;52.166;4.498;2024-02-21T22:08:18;3.17;;;0.83;;
81834;SDS011;71272;52.166;4.498;2024-02-21T22:10:44;1.83;;;0.90;;
81834;SDS011;71272;52.166;4.498;2024-02-21T22:13:10;2.15;;;0.80;;
81834;SDS011;71272;52.166;4.498;2024-02-21T22:15:36;1.38;;;0.70;;
81834;SDS011;71272;52.166;4.498;2024-02-21T22:18:01;1.20;;;0.63;;
81834;SDS011;71272;52.166;4.498;2024-02-21T22:20:26;1.40;;;0.60;;
81834;SDS011;71272;52.166;4.498;2024-02-21T22:22:52;1.57;;;0.80;;
81834;SDS011;71272;52.166;4.498;2024-02-21T22:25:17;0.63;;;0.60;;
81834;SDS011;71272;52.166;4.498;2024-02-21T22:27:42;1.80;;;0.90;;
81834;SDS011;71272;52.166;4.498;2024-02-21T22:30:08;1.90;;;0.77;;
81834;SDS011;71272;52.166;4.498;2024-02-21T22:32:36;1.35;;;0.70;;
81834;SDS011;71272;52.166;4.498;2024-02-21T22:35:03;2.08;;;0.80;;
81834;SDS011;71272;52.166;4.498;2024-02-21T22:37:29;1.77;;;0.65;;
81834;SDS011;71272;52.166;4.498;2024-02-21T22:39:54;1.90;;;0.63;;
81834;SDS011;71272;52.166;4.498;2024-02-21T22:42:20;2.50;;;0.82;;
81834;SDS011;71272;52.166;4.498;2024-02-21T22:44:46;1.70;;;0.90;;
81834;SDS011;71272;52.166;4.498;2024-02-21T22:47:11;1.57;;;0.70;;
81834;SDS011;71272;52.166;4.498;2024-02-21T22:52:03;1.10;;;0.73;;
81834;SDS011;71272;52.166;4.498;2024-02-21T22:54:28;2.42;;;0.82;;
81834;SDS011;71272;52.166;4.498;2024-02-21T22:56:54;2.17;;;0.80;;
81834;SDS011;71272;52.166;4.498;2024-02-21T22:59:19;0.80;;;0.50;;
81834;SDS011;71272;52.166;4.498;2024-02-21T23:01:44;2.23;;;0.60;;
81834;SDS011;71272;52.166;4.498;2024-02-21T23:04:10;1.00;;;0.60;;
81834;SDS011;71272;52.166;4.498;2024-02-21T23:06:36;1.98;;;0.70;;
81834;SDS011;71272;52.166;4.498;2024-02-21T23:09:02;2.30;;;0.85;;
81834;SDS011;71272;52.166;4.498;2024-02-21T23:11:29;1.65;;;0.57;;
81834;SDS011;71272;52.166;4.498;2024-02-21T23:13:55;2.00;;;0.63;;
81834;SDS011;71272;52.166;4.498;2024-02-21T23:16:20;1.57;;;0.67;;
81834;SDS011;71272;52.166;4.498;2024-02-21T23:18:46;1.30;;;0.70;;
81834;SDS011;71272;52.166;4.498;2024-02-21T23:21:11;1.50;;;0.70;;
81834;SDS011;71272;52.166;4.498;2024-02-21T23:23:37;1.98;;;0.80;;
81834;SDS011;71272;52.166;4.498;2024-02-21T23:26:02;1.70;;;0.70;;
81834;SDS011;71272;52.166;4.498;2024-02-21T23:28:28;1.88;;;0.70;;
81834;SDS011;71272;52.166;4.498;2024-02-21T23:30:53;2.10;;;0.83;;
81834;SDS011;71272;52.166;4.498;2024-02-21T23:33:18;1.60;;;0.60;;
81834;SDS011;71272;52.166;4.498;2024-02-21T23:35:44;1.27;;;0.60;;
81834;SDS011;71272;52.166;4.498;2024-02-21T23:38:09;2.03;;;0.70;;
81834;SDS011;71272;52.166;4.498;2024-02-21T23:40:34;1.33;;;0.70;;
81834;SDS011;71272;52.166;4.498;2024-02-21T23:43:00;1.33;;;0.60;;
81834;SDS011;71272;52.166;4.498;2024-02-21T23:45:26;1.90;;;0.75;;
81834;SDS011;71272;52.166;4.498;2024-02-21T23:47:51;3.22;;;0.90;;
81834;SDS011;71272;52.166;4.498;2024-02-21T23:50:16;2.23;;;0.97;;
81834;SDS011;71272;52.166;4.498;2024-02-21T23:52:42;2.43;;;0.70;;
81834;SDS011;71272;52.166;4.498;2024-02-21T23:55:07;2.73;;;0.70;;
81834;SDS011;71272;52.166;4.498;2024-02-21T23:57:33;2.70;;;1.00;;
81834;SDS011;71272;52.166;4.498;2024-02-21T23:59:59;2.27;;;0.70;;
